createdAt,value
2018-12-29T00:00:07.874Z,52.67
2018-12-29T00:00:39.476Z,52.31
2018-12-29T00:01:11.089Z,52.71
2018-12-29T00:01:42.703Z,52.66
2018-12-29T00:02:14.372Z,52.54
2018-12-29T00:02:45.966Z,52.85
2018-12-29T00:03:17.559Z,52.45
2018-12-29T00:03:49.168Z,52.70
2018-12-29T00:04:20.761Z,52.78
2018-12-29T00:04:52.400Z,52.34
2018-12-29T00:05:23.999Z,52.89
2018-12-29T00:05:55.603Z,52.88
2018-12-29T00:06:27.213Z,52.60
2018-12-29T00:06:58.818Z,52.48
2018-12-29T00:07:30.414Z,52.49
2018-12-29T00:08:02.015Z,52.48
2018-12-29T00:08:33.614Z,52.55
2018-12-29T00:09:05.211Z,52.56
2018-12-29T00:09:36.820Z,52.46
2018-12-29T00:10:08.453Z,50.14
2018-12-29T00:10:40.059Z,45.13
2018-12-29T00:11:11.668Z,43.95
2018-12-29T00:11:43.274Z,43.37
2018-12-29T00:12:14.852Z,42.53
2018-12-29T00:12:46.465Z,42.48
2018-12-29T00:13:18.065Z,43.36
2018-12-29T00:13:49.649Z,43.16
2018-12-29T00:14:21.255Z,43.21
2018-12-29T00:14:55.135Z,43.66
2018-12-29T00:15:24.546Z,47.40
2018-12-29T00:15:56.136Z,48.00
2018-12-29T00:16:27.730Z,47.32
2018-12-29T00:16:59.344Z,47.81
2018-12-29T00:17:30.955Z,47.39
2018-12-29T00:18:02.564Z,46.99
2018-12-29T00:18:34.162Z,46.82
2018-12-29T00:19:05.754Z,46.45
2018-12-29T00:19:37.350Z,46.52
2018-12-29T00:20:08.986Z,46.73
2018-12-29T00:20:40.582Z,46.52
2018-12-29T00:21:12.179Z,46.68
2018-12-29T00:21:43.783Z,47.02
2018-12-29T00:22:15.381Z,47.28
2018-12-29T00:22:46.973Z,47.44
2018-12-29T00:23:18.566Z,47.60
2018-12-29T00:23:50.168Z,47.72
2018-12-29T00:24:21.780Z,47.62
2018-12-29T00:24:53.373Z,47.77
2018-12-29T00:25:25.004Z,48.06
2018-12-29T00:25:56.587Z,48.20
2018-12-29T00:26:28.188Z,48.49
2018-12-29T00:26:59.790Z,48.63
2018-12-29T00:27:31.381Z,48.77
2018-12-29T00:28:02.970Z,48.83
2018-12-29T00:28:34.576Z,49.12
2018-12-29T00:29:06.160Z,49.15
2018-12-29T00:29:37.757Z,49.18
2018-12-29T00:30:09.367Z,49.32
2018-12-29T00:30:40.981Z,49.37
2018-12-29T00:31:12.592Z,49.51
2018-12-29T00:31:44.205Z,49.50
2018-12-29T00:32:15.801Z,49.79
2018-12-29T00:32:47.393Z,49.80
2018-12-29T00:33:18.985Z,49.86
2018-12-29T00:33:50.577Z,49.81
2018-12-29T00:34:22.161Z,50.08
2018-12-29T00:34:53.754Z,50.15
2018-12-29T00:35:25.383Z,50.15
2018-12-29T00:35:56.974Z,50.22
2018-12-29T00:36:28.588Z,50.33
2018-12-29T00:37:00.182Z,50.51
2018-12-29T00:37:31.774Z,50.40
2018-12-29T00:38:03.374Z,50.46
2018-12-29T00:38:34.965Z,50.61
2018-12-29T00:39:06.571Z,50.73
2018-12-29T00:39:38.161Z,50.76
2018-12-29T00:40:09.788Z,50.82
2018-12-29T00:40:41.383Z,50.96
2018-12-29T00:41:12.973Z,50.90
2018-12-29T00:41:44.580Z,51.09
2018-12-29T00:42:16.179Z,51.09
2018-12-29T00:42:47.781Z,51.04
2018-12-29T00:43:19.371Z,51.20
2018-12-29T00:43:50.975Z,51.24
2018-12-29T00:44:22.579Z,51.27
2018-12-29T00:44:54.187Z,51.55
2018-12-29T00:45:25.810Z,51.38
2018-12-29T00:45:57.418Z,51.43
2018-12-29T00:46:29.032Z,51.60
2018-12-29T00:47:00.612Z,51.52
2018-12-29T00:47:32.193Z,51.68
2018-12-29T00:48:03.801Z,51.67
2018-12-29T00:48:35.411Z,51.77
2018-12-29T00:49:07.027Z,51.74
2018-12-29T00:49:38.621Z,52.04
2018-12-29T00:50:10.214Z,52.15
2018-12-29T00:50:41.829Z,52.04
2018-12-29T00:51:13.421Z,51.98
2018-12-29T00:51:45.023Z,51.91
2018-12-29T00:52:16.622Z,52.19
2018-12-29T00:52:48.222Z,52.10
2018-12-29T00:53:19.814Z,52.03
2018-12-29T00:53:51.424Z,52.18
2018-12-29T00:54:23.022Z,52.37
2018-12-29T00:54:54.607Z,52.22
2018-12-29T00:55:26.216Z,52.25
2018-12-29T00:55:57.819Z,52.22
2018-12-29T00:56:29.408Z,52.61
2018-12-29T00:57:01.006Z,52.30
2018-12-29T00:57:32.601Z,52.38
2018-12-29T00:58:04.193Z,52.50
2018-12-29T00:58:35.791Z,52.60
2018-12-29T00:59:07.386Z,52.44
2018-12-29T00:59:38.981Z,52.57
2018-12-29T01:00:10.577Z,52.44
2018-12-29T01:00:42.198Z,52.52
2018-12-29T01:01:13.804Z,52.53
2018-12-29T01:01:45.402Z,52.95
2018-12-29T01:02:16.984Z,53.19
2018-12-29T01:02:48.597Z,52.95
2018-12-29T01:03:20.209Z,53.29
2018-12-29T01:03:51.820Z,53.08
2018-12-29T01:04:23.403Z,53.14
2018-12-29T01:04:55.015Z,53.09
2018-12-29T01:05:26.652Z,53.63
2018-12-29T01:05:58.245Z,53.17
2018-12-29T01:06:29.858Z,53.29
2018-12-29T01:07:01.454Z,53.16
2018-12-29T01:07:33.083Z,53.51
2018-12-29T01:08:04.700Z,53.88
2018-12-29T01:08:36.298Z,53.49
2018-12-29T01:09:07.954Z,53.48
2018-12-29T01:09:39.541Z,53.39
2018-12-29T01:10:11.128Z,53.34
2018-12-29T01:10:42.760Z,53.33
2018-12-29T01:11:14.357Z,53.44
2018-12-29T01:11:46.013Z,53.43
2018-12-29T01:12:17.595Z,53.53
2018-12-29T01:12:49.176Z,53.66
2018-12-29T01:13:20.784Z,53.54
2018-12-29T01:13:52.392Z,53.61
2018-12-29T01:14:23.999Z,53.64
2018-12-29T01:14:55.607Z,53.59
2018-12-29T01:15:27.208Z,53.70
2018-12-29T01:15:58.803Z,53.77
2018-12-29T01:16:30.424Z,53.83
2018-12-29T01:17:02.036Z,53.69
2018-12-29T01:17:33.649Z,53.67
2018-12-29T01:18:05.236Z,53.83
2018-12-29T01:18:36.829Z,54.00
2018-12-29T01:19:08.440Z,53.74
2018-12-29T01:19:40.042Z,53.78
2018-12-29T01:20:11.627Z,53.89
2018-12-29T01:20:43.529Z,53.78
2018-12-29T01:21:15.136Z,53.83
2018-12-29T01:21:46.743Z,53.79
2018-12-29T01:22:18.346Z,53.86
2018-12-29T01:22:49.945Z,53.95
2018-12-29T01:23:21.551Z,53.93
2018-12-29T01:23:53.155Z,53.92
2018-12-29T01:24:24.750Z,53.83
2018-12-29T01:24:56.364Z,53.86
2018-12-29T01:25:27.976Z,53.86
2018-12-29T01:25:59.578Z,53.99
2018-12-29T01:26:31.173Z,54.15
2018-12-29T01:27:02.779Z,53.96
2018-12-29T01:27:34.388Z,54.08
2018-12-29T01:28:05.998Z,54.09
2018-12-29T01:28:37.594Z,54.06
2018-12-29T01:29:09.204Z,54.17
2018-12-29T01:29:40.787Z,54.14
2018-12-29T01:30:12.388Z,54.15
2018-12-29T01:30:43.982Z,54.31
2018-12-29T01:31:15.583Z,54.34
2018-12-29T01:31:47.163Z,54.13
2018-12-29T01:32:18.767Z,54.18
2018-12-29T01:32:50.376Z,54.17
2018-12-29T01:33:21.983Z,53.97
2018-12-29T01:33:53.582Z,54.17
2018-12-29T01:34:25.191Z,54.31
2018-12-29T01:34:56.804Z,54.29
2018-12-29T01:35:28.413Z,54.20
2018-12-29T01:36:00.034Z,54.39
2018-12-29T01:36:31.639Z,54.21
2018-12-29T01:37:03.248Z,54.47
2018-12-29T01:37:34.841Z,54.36
2018-12-29T01:38:06.451Z,54.45
2018-12-29T01:38:38.060Z,54.58
2018-12-29T01:39:09.714Z,54.50
2018-12-29T01:39:41.306Z,54.66
2018-12-29T01:40:12.898Z,54.60
2018-12-29T01:40:44.494Z,54.44
2018-12-29T01:41:16.100Z,54.51
2018-12-29T01:41:47.694Z,54.43
2018-12-29T01:42:19.300Z,54.41
2018-12-29T01:42:50.908Z,54.55
2018-12-29T01:43:22.506Z,54.50
2018-12-29T01:43:54.124Z,54.51
2018-12-29T01:44:25.717Z,54.53
2018-12-29T01:44:57.329Z,54.79
2018-12-29T01:45:28.926Z,54.58
2018-12-29T01:46:00.549Z,54.62
2018-12-29T01:46:32.157Z,54.74
2018-12-29T01:47:03.755Z,54.71
2018-12-29T01:47:35.363Z,54.63
2018-12-29T01:48:06.968Z,54.59
2018-12-29T01:48:38.552Z,54.69
2018-12-29T01:49:10.160Z,55.00
2018-12-29T01:49:41.744Z,54.86
2018-12-29T01:50:13.357Z,54.84
2018-12-29T01:50:44.968Z,54.86
2018-12-29T01:51:16.562Z,54.95
2018-12-29T01:51:48.158Z,54.80
2018-12-29T01:52:19.750Z,54.80
2018-12-29T01:52:51.348Z,54.67
2018-12-29T01:53:22.955Z,55.33
2018-12-29T01:53:54.564Z,55.06
2018-12-29T01:54:26.147Z,55.05
2018-12-29T01:54:57.741Z,55.18
2018-12-29T01:55:29.338Z,55.06
2018-12-29T01:56:00.937Z,55.08
2018-12-29T01:56:32.552Z,55.05
2018-12-29T01:57:04.160Z,55.06
2018-12-29T01:57:35.768Z,55.03
2018-12-29T01:58:07.371Z,55.00
2018-12-29T01:58:38.966Z,55.09
2018-12-29T01:59:10.576Z,55.19
2018-12-29T01:59:42.184Z,55.11
2018-12-29T02:00:13.778Z,55.20
2018-12-29T02:00:45.383Z,55.67
2018-12-29T02:01:17.019Z,55.34
2018-12-29T02:01:48.628Z,55.24
2018-12-29T02:02:20.235Z,54.97
2018-12-29T02:02:51.830Z,55.10
2018-12-29T02:03:23.426Z,55.05
2018-12-29T02:03:55.029Z,55.36
2018-12-29T02:04:26.622Z,55.12
2018-12-29T02:04:58.240Z,55.31
2018-12-29T02:05:29.852Z,55.21
2018-12-29T02:06:01.449Z,55.25
2018-12-29T02:06:33.066Z,55.15
2018-12-29T02:07:04.662Z,54.97
2018-12-29T02:07:36.249Z,55.18
2018-12-29T02:08:07.867Z,55.16
2018-12-29T02:08:39.466Z,55.10
2018-12-29T02:09:11.072Z,54.97
2018-12-29T02:09:42.669Z,55.10
2018-12-29T02:10:14.261Z,55.14
2018-12-29T02:10:45.858Z,55.10
2018-12-29T02:11:17.478Z,55.05
2018-12-29T02:11:49.114Z,55.08
2018-12-29T02:12:20.719Z,55.22
2018-12-29T02:12:52.329Z,55.30
2018-12-29T02:13:23.936Z,55.19
2018-12-29T02:13:55.530Z,55.14
2018-12-29T02:14:27.122Z,55.15
2018-12-29T02:14:58.707Z,55.29
2018-12-29T02:15:30.327Z,55.25
2018-12-29T02:16:01.924Z,55.22
2018-12-29T02:16:33.542Z,55.44
2018-12-29T02:17:05.138Z,55.12
2018-12-29T02:17:36.734Z,55.16
2018-12-29T02:18:08.326Z,55.37
2018-12-29T02:18:39.923Z,55.51
2018-12-29T02:19:11.550Z,55.35
2018-12-29T02:19:43.154Z,55.38
2018-12-29T02:20:14.745Z,55.50
2018-12-29T02:20:46.352Z,55.33
2018-12-29T02:21:17.960Z,55.47
2018-12-29T02:21:49.588Z,55.44
2018-12-29T02:22:21.181Z,55.49
2018-12-29T02:22:52.782Z,55.54
2018-12-29T02:23:24.378Z,55.53
2018-12-29T02:23:55.961Z,55.33
2018-12-29T02:24:27.554Z,55.52
2018-12-29T02:24:59.147Z,55.57
2018-12-29T02:25:30.747Z,55.51
2018-12-29T02:26:02.356Z,55.63
2018-12-29T02:26:34.303Z,55.62
2018-12-29T02:27:05.884Z,55.61
2018-12-29T02:27:37.481Z,55.84
2018-12-29T02:28:09.080Z,55.69
2018-12-29T02:28:40.694Z,55.77
2018-12-29T02:29:12.311Z,55.98
2018-12-29T02:29:43.904Z,55.76
2018-12-29T02:30:15.485Z,56.07
2018-12-29T02:30:47.078Z,56.15
2018-12-29T02:31:18.680Z,56.06
2018-12-29T02:31:50.303Z,55.99
2018-12-29T02:32:21.888Z,56.00
2018-12-29T02:32:53.492Z,56.26
2018-12-29T02:33:25.154Z,56.17
2018-12-29T02:33:56.745Z,56.17
2018-12-29T02:34:28.356Z,56.33
2018-12-29T02:34:59.953Z,56.16
2018-12-29T02:35:31.551Z,56.13
2018-12-29T02:36:03.148Z,56.24
2018-12-29T02:36:34.768Z,56.44
2018-12-29T02:37:06.404Z,56.25
2018-12-29T02:37:38.014Z,56.27
2018-12-29T02:38:09.608Z,56.36
2018-12-29T02:38:41.277Z,56.24
2018-12-29T02:39:12.873Z,56.45
2018-12-29T02:39:44.465Z,56.49
2018-12-29T02:40:16.063Z,56.54
2018-12-29T02:40:47.673Z,56.68
2018-12-29T02:41:19.280Z,56.34
2018-12-29T02:41:50.916Z,56.36
2018-12-29T02:42:22.511Z,56.62
2018-12-29T02:42:54.115Z,56.51
2018-12-29T02:43:25.698Z,56.52
2018-12-29T02:43:57.295Z,56.54
2018-12-29T02:44:28.897Z,56.49
2018-12-29T02:45:00.481Z,56.37
2018-12-29T02:45:33.380Z,56.44
2018-12-29T02:46:03.732Z,56.28
2018-12-29T02:46:35.327Z,56.54
2018-12-29T02:47:06.951Z,56.37
2018-12-29T02:47:38.549Z,56.71
2018-12-29T02:48:10.143Z,56.64
2018-12-29T02:48:41.752Z,56.56
2018-12-29T02:49:13.363Z,56.66
2018-12-29T02:49:44.968Z,56.72
2018-12-29T02:50:16.578Z,56.77
2018-12-29T02:50:48.168Z,57.13
2018-12-29T02:51:19.775Z,57.01
2018-12-29T02:51:51.696Z,57.04
2018-12-29T02:52:23.303Z,57.26
2018-12-29T02:52:54.903Z,56.85
2018-12-29T02:53:26.520Z,57.02
2018-12-29T02:53:58.134Z,56.99
2018-12-29T02:54:29.733Z,57.21
2018-12-29T02:55:01.320Z,57.04
2018-12-29T02:55:32.901Z,56.85
2018-12-29T02:56:04.484Z,57.07
2018-12-29T02:56:36.094Z,56.86
2018-12-29T02:57:07.722Z,57.08
2018-12-29T02:57:39.305Z,57.02
2018-12-29T02:58:10.960Z,57.26
2018-12-29T02:58:42.534Z,56.89
2018-12-29T02:59:14.134Z,57.06
2018-12-29T02:59:45.725Z,57.02
2018-12-29T03:00:17.324Z,57.20
2018-12-29T03:00:48.936Z,57.32
2018-12-29T03:01:20.531Z,56.91
2018-12-29T03:01:52.130Z,56.84
2018-12-29T03:02:23.757Z,56.94
2018-12-29T03:02:55.364Z,57.09
2018-12-29T03:03:26.976Z,56.90
2018-12-29T03:03:58.575Z,57.24
2018-12-29T03:04:30.187Z,57.04
2018-12-29T03:05:01.797Z,56.95
2018-12-29T03:05:33.394Z,56.98
2018-12-29T03:06:04.991Z,56.71
2018-12-29T03:06:36.589Z,56.76
2018-12-29T03:07:08.213Z,56.75
2018-12-29T03:07:39.810Z,56.80
2018-12-29T03:08:11.406Z,56.79
2018-12-29T03:08:43.010Z,56.69
2018-12-29T03:09:14.612Z,56.65
2018-12-29T03:09:46.224Z,56.84
2018-12-29T03:10:17.837Z,56.68
2018-12-29T03:10:49.432Z,56.92
2018-12-29T03:11:21.017Z,56.86
2018-12-29T03:11:52.633Z,56.79
2018-12-29T03:12:24.273Z,56.68
2018-12-29T03:12:55.877Z,56.78
2018-12-29T03:13:27.518Z,56.82
2018-12-29T03:13:59.117Z,56.68
2018-12-29T03:14:30.715Z,56.55
2018-12-29T03:15:02.300Z,56.48
2018-12-29T03:15:40.828Z,56.53
2018-12-29T03:16:05.554Z,56.67
2018-12-29T03:16:37.160Z,56.67
2018-12-29T03:17:08.797Z,56.40
2018-12-29T03:17:40.423Z,56.40
2018-12-29T03:18:12.027Z,56.56
2018-12-29T03:18:43.626Z,56.54
2018-12-29T03:19:15.233Z,56.52
2018-12-29T03:19:46.844Z,56.54
2018-12-29T03:20:18.431Z,56.52
2018-12-29T03:20:50.032Z,56.47
2018-12-29T03:21:21.647Z,56.38
2018-12-29T03:21:53.244Z,56.57
2018-12-29T03:22:24.865Z,56.56
2018-12-29T03:22:56.458Z,56.38
2018-12-29T03:23:28.053Z,56.63
2018-12-29T03:23:59.651Z,56.46
2018-12-29T03:24:31.260Z,56.41
2018-12-29T03:25:02.880Z,56.49
2018-12-29T03:25:34.496Z,56.44
2018-12-29T03:26:06.095Z,56.49
2018-12-29T03:26:37.718Z,56.37
2018-12-29T03:27:09.313Z,56.59
2018-12-29T03:27:40.951Z,56.40
2018-12-29T03:28:12.553Z,56.53
2018-12-29T03:28:44.159Z,56.53
2018-12-29T03:29:15.752Z,56.30
2018-12-29T03:29:47.356Z,56.57
2018-12-29T03:30:18.955Z,56.46
2018-12-29T03:30:50.586Z,56.55
2018-12-29T03:31:22.212Z,56.44
2018-12-29T03:31:53.826Z,56.45
2018-12-29T03:32:25.456Z,56.36
2018-12-29T03:32:57.080Z,56.33
2018-12-29T03:33:28.678Z,56.51
2018-12-29T03:34:00.264Z,56.49
2018-12-29T03:34:31.864Z,56.32
2018-12-29T03:35:03.462Z,56.25
2018-12-29T03:35:35.068Z,56.41
2018-12-29T03:36:06.680Z,56.16
2018-12-29T03:36:38.278Z,56.46
2018-12-29T03:37:09.888Z,56.75
2018-12-29T03:37:41.518Z,56.86
2018-12-29T03:38:13.124Z,56.73
2018-12-29T03:38:44.712Z,56.87
2018-12-29T03:39:16.306Z,56.90
2018-12-29T03:39:47.914Z,57.02
2018-12-29T03:40:19.517Z,57.20
2018-12-29T03:40:51.133Z,56.84
2018-12-29T03:41:22.739Z,56.89
2018-12-29T03:41:54.352Z,56.87
2018-12-29T03:42:25.946Z,56.74
2018-12-29T03:42:57.553Z,56.67
2018-12-29T03:43:29.136Z,56.50
2018-12-29T03:44:00.735Z,56.20
2018-12-29T03:44:32.334Z,56.21
2018-12-29T03:45:03.934Z,56.26
2018-12-29T03:45:35.536Z,56.49
2018-12-29T03:46:07.160Z,56.17
2018-12-29T03:46:38.757Z,56.14
2018-12-29T03:47:10.351Z,56.17
2018-12-29T03:47:41.974Z,56.22
2018-12-29T03:48:13.642Z,56.00
2018-12-29T03:48:45.249Z,56.16
2018-12-29T03:49:16.850Z,56.19
2018-12-29T03:49:48.451Z,56.09
2018-12-29T03:50:20.047Z,56.29
2018-12-29T03:50:51.659Z,56.26
2018-12-29T03:51:23.298Z,56.26
2018-12-29T03:51:54.885Z,56.26
2018-12-29T03:52:26.487Z,56.30
2018-12-29T03:52:58.107Z,56.10
2018-12-29T03:53:29.715Z,56.23
2018-12-29T03:54:01.319Z,56.08
2018-12-29T03:54:32.913Z,56.03
2018-12-29T03:55:04.514Z,56.22
2018-12-29T03:55:36.136Z,56.28
2018-12-29T03:56:07.748Z,56.29
2018-12-29T03:56:39.347Z,56.19
2018-12-29T03:57:10.935Z,56.28
2018-12-29T03:57:42.545Z,56.10
2018-12-29T03:58:14.138Z,56.09
2018-12-29T03:58:45.729Z,56.05
2018-12-29T03:59:17.321Z,56.16
2018-12-29T03:59:48.926Z,55.94
2018-12-29T04:00:20.515Z,56.01
2018-12-29T04:00:52.125Z,55.98
2018-12-29T04:01:23.732Z,56.00
2018-12-29T04:01:55.331Z,56.00
2018-12-29T04:02:26.930Z,56.03
2018-12-29T04:02:58.544Z,56.08
2018-12-29T04:03:30.134Z,56.01
2018-12-29T04:04:01.739Z,56.05
2018-12-29T04:04:33.341Z,56.08
2018-12-29T04:05:04.947Z,56.02
2018-12-29T04:05:36.549Z,56.12
2018-12-29T04:06:08.143Z,56.13
2018-12-29T04:06:39.756Z,56.28
2018-12-29T04:07:11.363Z,56.24
2018-12-29T04:07:42.971Z,56.07
2018-12-29T04:08:14.566Z,56.06
2018-12-29T04:08:46.158Z,55.91
2018-12-29T04:09:17.760Z,55.97
2018-12-29T04:09:49.368Z,56.00
2018-12-29T04:10:20.990Z,55.88
2018-12-29T04:10:52.610Z,55.99
2018-12-29T04:11:24.213Z,56.06
2018-12-29T04:11:55.815Z,55.86
2018-12-29T04:12:27.423Z,55.95
2018-12-29T04:12:59.046Z,56.05
2018-12-29T04:13:30.670Z,55.82
2018-12-29T04:14:02.262Z,55.98
2018-12-29T04:14:33.859Z,56.15
2018-12-29T04:15:05.467Z,56.19
2018-12-29T04:15:37.083Z,56.29
2018-12-29T04:16:08.682Z,56.12
2018-12-29T04:16:40.305Z,56.17
2018-12-29T04:17:11.905Z,56.37
2018-12-29T04:17:43.506Z,56.33
2018-12-29T04:18:15.111Z,56.36
2018-12-29T04:18:46.705Z,56.38
2018-12-29T04:19:18.299Z,56.58
2018-12-29T04:19:49.893Z,56.65
2018-12-29T04:20:21.496Z,56.62
2018-12-29T04:20:53.092Z,56.52
2018-12-29T04:21:24.682Z,56.53
2018-12-29T04:21:56.284Z,56.34
2018-12-29T04:22:27.894Z,56.53
2018-12-29T04:22:59.510Z,56.48
2018-12-29T04:23:31.124Z,56.49
2018-12-29T04:24:02.741Z,56.52
2018-12-29T04:24:34.338Z,56.73
2018-12-29T04:25:05.940Z,56.66
2018-12-29T04:25:37.538Z,56.72
2018-12-29T04:26:09.119Z,56.79
2018-12-29T04:26:40.734Z,56.70
2018-12-29T04:27:12.333Z,56.95
2018-12-29T04:27:43.925Z,56.78
2018-12-29T04:28:15.521Z,56.82
2018-12-29T04:28:47.119Z,56.98
2018-12-29T04:29:18.706Z,56.78
2018-12-29T04:29:50.311Z,56.72
2018-12-29T04:30:21.910Z,56.78
2018-12-29T04:30:53.505Z,56.88
2018-12-29T04:31:25.107Z,56.80
2018-12-29T04:31:56.704Z,57.01
2018-12-29T04:32:28.332Z,56.92
2018-12-29T04:32:59.945Z,56.94
2018-12-29T04:33:31.574Z,56.77
2018-12-29T04:34:03.171Z,56.95
2018-12-29T04:34:34.771Z,56.91
2018-12-29T04:35:06.975Z,56.81
2018-12-29T04:35:38.556Z,57.00
2018-12-29T04:36:10.155Z,56.79
2018-12-29T04:36:41.745Z,56.91
2018-12-29T04:37:13.341Z,56.91
2018-12-29T04:37:44.943Z,56.92
2018-12-29T04:38:16.765Z,56.87
2018-12-29T04:38:48.364Z,57.01
2018-12-29T04:39:19.961Z,56.94
2018-12-29T04:39:51.553Z,56.93
2018-12-29T04:40:23.146Z,56.85
2018-12-29T04:40:54.728Z,57.04
2018-12-29T04:41:26.340Z,56.92
2018-12-29T04:41:57.924Z,56.96
2018-12-29T04:42:29.523Z,56.93
2018-12-29T04:43:01.127Z,56.68
2018-12-29T04:43:32.764Z,56.92
2018-12-29T04:44:04.376Z,57.02
2018-12-29T04:44:35.974Z,57.10
2018-12-29T04:45:07.569Z,56.97
2018-12-29T04:45:39.161Z,56.89
2018-12-29T04:46:10.776Z,57.01
2018-12-29T04:46:42.373Z,57.12
2018-12-29T04:47:13.966Z,57.02
2018-12-29T04:47:45.561Z,56.83
2018-12-29T04:48:17.167Z,56.91
2018-12-29T04:48:48.804Z,56.83
2018-12-29T04:49:20.398Z,56.92
2018-12-29T04:49:52.003Z,56.89
2018-12-29T04:50:23.598Z,56.80
2018-12-29T04:50:55.195Z,57.03
2018-12-29T04:51:26.788Z,56.88
2018-12-29T04:51:58.376Z,56.85
2018-12-29T04:52:29.971Z,56.79
2018-12-29T04:53:01.583Z,56.93
2018-12-29T04:53:33.220Z,56.77
2018-12-29T04:54:04.832Z,56.77
2018-12-29T04:54:36.450Z,56.74
2018-12-29T04:55:08.061Z,56.90
2018-12-29T04:55:39.648Z,56.83
2018-12-29T04:56:11.257Z,56.90
2018-12-29T04:56:42.963Z,56.80
2018-12-29T04:57:14.575Z,56.92
2018-12-29T04:57:46.176Z,56.97
2018-12-29T04:58:17.770Z,57.03
2018-12-29T04:58:49.376Z,56.95
2018-12-29T04:59:20.960Z,56.94
2018-12-29T04:59:52.564Z,57.03
2018-12-29T05:00:24.162Z,57.01
2018-12-29T05:00:55.764Z,57.02
2018-12-29T05:01:27.347Z,57.16
2018-12-29T05:01:58.955Z,56.97
2018-12-29T05:02:30.549Z,56.92
2018-12-29T05:03:02.155Z,57.07
2018-12-29T05:03:33.781Z,57.63
2018-12-29T05:04:05.404Z,57.33
2018-12-29T05:04:36.997Z,57.63
2018-12-29T05:05:08.589Z,57.96
2018-12-29T05:05:40.196Z,57.50
2018-12-29T05:06:11.801Z,57.37
2018-12-29T05:06:43.412Z,57.47
2018-12-29T05:07:15.025Z,57.64
2018-12-29T05:07:46.611Z,57.59
2018-12-29T05:08:18.220Z,57.56
2018-12-29T05:08:49.856Z,57.74
2018-12-29T05:09:21.462Z,57.69
2018-12-29T05:09:53.067Z,57.96
2018-12-29T05:10:24.665Z,57.63
2018-12-29T05:10:56.272Z,57.89
2018-12-29T05:11:27.860Z,57.84
2018-12-29T05:11:59.453Z,57.71
2018-12-29T05:12:31.036Z,57.89
2018-12-29T05:13:02.644Z,57.77
2018-12-29T05:13:34.247Z,58.01
2018-12-29T05:14:05.870Z,58.04
2018-12-29T05:14:37.480Z,58.34
2018-12-29T05:15:09.064Z,57.93
2018-12-29T05:15:40.661Z,58.24
2018-12-29T05:16:12.912Z,58.14
2018-12-29T05:16:43.935Z,57.98
2018-12-29T05:17:15.544Z,58.00
2018-12-29T05:17:47.182Z,58.01
2018-12-29T05:18:18.773Z,58.29
2018-12-29T05:18:50.393Z,58.18
2018-12-29T05:19:21.990Z,58.18
2018-12-29T05:19:53.590Z,58.31
2018-12-29T05:20:25.189Z,58.28
2018-12-29T05:20:56.787Z,58.38
2018-12-29T05:21:28.377Z,58.21
2018-12-29T05:21:59.970Z,58.14
2018-12-29T05:22:31.567Z,58.21
2018-12-29T05:23:03.175Z,58.35
2018-12-29T05:23:34.784Z,58.54
2018-12-29T05:24:06.420Z,58.29
2018-12-29T05:24:38.018Z,58.39
2018-12-29T05:25:09.619Z,58.27
2018-12-29T05:25:41.228Z,58.26
2018-12-29T05:26:12.812Z,58.32
2018-12-29T05:26:44.405Z,58.10
2018-12-29T05:27:16.012Z,58.28
2018-12-29T05:27:47.615Z,58.15
2018-12-29T05:28:19.210Z,58.03
2018-12-29T05:28:50.843Z,58.48
2018-12-29T05:29:22.452Z,58.22
2018-12-29T05:29:54.054Z,58.33
2018-12-29T05:30:25.650Z,58.34
2018-12-29T05:30:57.259Z,58.36
2018-12-29T05:31:28.843Z,58.09
2018-12-29T05:32:00.452Z,57.95
2018-12-29T05:32:32.064Z,58.14
2018-12-29T05:33:03.676Z,58.22
2018-12-29T05:33:35.273Z,58.20
2018-12-29T05:34:06.897Z,58.00
2018-12-29T05:34:38.503Z,58.35
2018-12-29T05:35:10.107Z,58.32
2018-12-29T05:35:41.704Z,58.35
2018-12-29T05:36:13.303Z,58.40
2018-12-29T05:36:44.899Z,58.28
2018-12-29T05:37:16.497Z,58.16
2018-12-29T05:37:48.081Z,58.28
2018-12-29T05:38:19.663Z,58.24
2018-12-29T05:38:51.261Z,58.43
2018-12-29T05:39:22.892Z,58.39
2018-12-29T05:39:54.504Z,58.22
2018-12-29T05:40:26.102Z,58.29
2018-12-29T05:40:57.683Z,58.02
2018-12-29T05:41:29.287Z,58.36
2018-12-29T05:42:00.894Z,58.26
2018-12-29T05:42:32.508Z,58.06
2018-12-29T05:43:04.096Z,58.18
2018-12-29T05:43:35.963Z,58.47
2018-12-29T05:44:07.595Z,58.37
2018-12-29T05:44:39.189Z,58.15
2018-12-29T05:45:10.806Z,58.37
2018-12-29T05:45:42.411Z,58.49
2018-12-29T05:46:20.141Z,58.24
2018-12-29T05:46:45.678Z,58.43
2018-12-29T05:47:17.273Z,58.46
2018-12-29T05:47:48.870Z,58.29
2018-12-29T05:48:20.472Z,58.42
2018-12-29T05:48:52.073Z,58.25
2018-12-29T05:49:23.694Z,58.38
2018-12-29T05:49:55.289Z,58.52
2018-12-29T05:50:26.882Z,58.53
2018-12-29T05:50:58.479Z,58.44
2018-12-29T05:52:01.317Z,58.49
2018-12-29T05:52:32.927Z,58.31
2018-12-29T05:53:04.536Z,58.16
2018-12-29T05:53:36.144Z,58.46
2018-12-29T05:54:07.741Z,58.62
2018-12-29T05:54:39.347Z,58.35
2018-12-29T05:55:10.942Z,58.35
2018-12-29T05:55:42.544Z,58.28
2018-12-29T05:56:14.138Z,58.53
2018-12-29T05:56:45.720Z,58.38
2018-12-29T05:57:17.300Z,58.43
2018-12-29T05:57:48.898Z,58.45
2018-12-29T05:58:20.480Z,58.48
2018-12-29T05:58:52.088Z,58.54
2018-12-29T05:59:23.728Z,58.47
2018-12-29T05:59:55.336Z,58.47
2018-12-29T06:00:26.971Z,58.50
2018-12-29T06:00:58.554Z,58.63
2018-12-29T06:01:30.154Z,58.76
2018-12-29T06:02:01.749Z,59.35
2018-12-29T06:02:33.332Z,58.99
2018-12-29T06:03:04.916Z,59.08
2018-12-29T06:03:36.510Z,58.98
2018-12-29T06:04:08.116Z,59.05
2018-12-29T06:04:39.739Z,59.11
2018-12-29T06:05:11.335Z,59.29
2018-12-29T06:05:42.932Z,58.96
2018-12-29T06:06:14.529Z,59.06
2018-12-29T06:06:46.124Z,59.31
2018-12-29T06:07:17.718Z,59.16
2018-12-29T06:07:49.330Z,59.06
2018-12-29T06:08:20.939Z,58.99
2018-12-29T06:08:52.548Z,58.80
2018-12-29T06:09:24.176Z,58.97
2018-12-29T06:09:55.760Z,59.20
2018-12-29T06:10:27.354Z,58.99
2018-12-29T06:10:58.964Z,59.04
2018-12-29T06:11:30.559Z,58.97
2018-12-29T06:12:02.149Z,58.93
2018-12-29T06:12:33.749Z,59.24
2018-12-29T06:13:05.355Z,58.96
2018-12-29T06:13:36.940Z,58.91
2018-12-29T06:14:08.548Z,58.84
2018-12-29T06:14:40.166Z,59.08
2018-12-29T06:15:11.761Z,58.66
2018-12-29T06:15:43.339Z,58.92
2018-12-29T06:16:14.937Z,58.72
2018-12-29T06:16:46.549Z,58.93
2018-12-29T06:17:18.155Z,58.90
2018-12-29T06:17:49.753Z,58.74
2018-12-29T06:18:21.335Z,58.59
2018-12-29T06:18:52.920Z,58.80
2018-12-29T06:19:24.588Z,58.81
2018-12-29T06:19:56.190Z,58.74
2018-12-29T06:20:27.794Z,58.81
2018-12-29T06:20:59.403Z,58.67
2018-12-29T06:21:30.997Z,58.58
2018-12-29T06:22:02.593Z,58.68
2018-12-29T06:22:34.201Z,58.61
2018-12-29T06:23:05.807Z,58.63
2018-12-29T06:23:37.416Z,58.73
2018-12-29T06:24:09.014Z,58.72
2018-12-29T06:24:40.630Z,58.45
2018-12-29T06:25:12.224Z,58.79
2018-12-29T06:25:43.833Z,58.75
2018-12-29T06:26:15.433Z,58.61
2018-12-29T06:26:47.044Z,58.54
2018-12-29T06:27:18.646Z,58.55
2018-12-29T06:27:50.242Z,58.66
2018-12-29T06:28:21.855Z,58.67
2018-12-29T06:28:53.456Z,58.84
2018-12-29T06:29:25.041Z,58.72
2018-12-29T06:29:56.657Z,58.55
2018-12-29T06:30:28.721Z,58.63
2018-12-29T06:31:00.320Z,58.58
2018-12-29T06:31:31.919Z,58.80
2018-12-29T06:32:03.504Z,58.63
2018-12-29T06:32:35.203Z,58.70
2018-12-29T06:33:06.797Z,58.53
2018-12-29T06:33:38.403Z,58.80
2018-12-29T06:34:09.997Z,58.59
2018-12-29T06:34:41.632Z,58.71
2018-12-29T06:35:13.229Z,58.52
2018-12-29T06:35:44.838Z,58.52
2018-12-29T06:36:16.433Z,58.46
2018-12-29T06:36:48.031Z,58.51
2018-12-29T06:37:19.639Z,58.50
2018-12-29T06:37:51.233Z,58.67
2018-12-29T06:38:22.827Z,58.56
2018-12-29T06:38:54.435Z,58.52
2018-12-29T06:39:26.023Z,58.50
2018-12-29T06:39:57.646Z,58.55
2018-12-29T06:40:29.241Z,58.85
2018-12-29T06:41:00.838Z,58.52
2018-12-29T06:41:32.449Z,58.86
2018-12-29T06:42:04.036Z,58.95
2018-12-29T06:42:35.616Z,58.78
2018-12-29T06:43:07.211Z,58.61
2018-12-29T06:43:38.868Z,58.74
2018-12-29T06:44:10.458Z,58.64
2018-12-29T06:44:42.058Z,58.53
2018-12-29T06:45:13.669Z,58.79
2018-12-29T06:45:45.276Z,58.91
2018-12-29T06:46:16.860Z,58.79
2018-12-29T06:46:48.468Z,58.65
2018-12-29T06:47:20.072Z,59.16